sensor_id;sensor_type;location;lat;lon;timestamp;pressure;altitude;pressure_sealevel;temperature;humidity
5679;BME280;2862;52.560;13.566;2023-02-15T00:02:19;102337.66;;;4.83;88.28
5679;BME280;2862;52.560;13.566;2023-02-15T00:12:23;102326.41;;;4.48;89.94
5679;BME280;2862;52.560;13.566;2023-02-15T00:22:26;102330.47;;;4.32;91.09
5679;BME280;2862;52.560;13.566;2023-02-15T00:32:30;102307.59;;;4.30;91.21
5679;BME280;2862;52.560;13.566;2023-02-15T00:42:33;102295.72;;;4.15;92.12
5679;BME280;2862;52.560;13.566;2023-02-15T00:52:38;102300.34;;;4.08;92.00
5679;BME280;2862;52.560;13.566;2023-02-15T01:02:41;102311.19;;;3.99;92.38
5679;BME280;2862;52.560;13.566;2023-02-15T01:12:46;102289.41;;;3.91;92.57
5679;BME280;2862;52.560;13.566;2023-02-15T01:22:50;102286.97;;;3.83;93.09
5679;BME280;2862;52.560;13.566;2023-02-15T01:32:54;102277.03;;;3.62;94.46
5679;BME280;2862;52.560;13.566;2023-02-15T01:42:57;102267.44;;;3.27;96.76
5679;BME280;2862;52.560;13.566;2023-02-15T01:53:06;102257.56;;;3.02;97.35
5679;BME280;2862;52.560;13.566;2023-02-15T02:03:11;102250.84;;;2.56;99.34
5679;BME280;2862;52.560;13.566;2023-02-15T02:13:16;102240.41;;;2.16;100.00
5679;BME280;2862;52.560;13.566;2023-02-15T02:23:25;102226.78;;;1.97;100.00
5679;BME280;2862;52.560;13.566;2023-02-15T02:33:47;102217.56;;;2.15;98.25
5679;BME280;2862;52.560;13.566;2023-02-15T02:44:01;102215.28;;;2.00;98.11
5679;BME280;2862;52.560;13.566;2023-02-15T02:54:09;102205.88;;;1.90;98.01
5679;BME280;2862;52.560;13.566;2023-02-15T03:04:15;102197.78;;;1.58;99.11
5679;BME280;2862;52.560;13.566;2023-02-15T03:14:22;102183.25;;;1.41;100.00
5679;BME280;2862;52.560;13.566;2023-02-15T03:24:29;102193.31;;;1.22;100.00
5679;BME280;2862;52.560;13.566;2023-02-15T03:34:36;102176.84;;;1.12;100.00
5679;BME280;2862;52.560;13.566;2023-02-15T03:44:47;102168.84;;;1.17;100.00
5679;BME280;2862;52.560;13.566;2023-02-15T03:54:55;102158.47;;;1.09;100.00
5679;BME280;2862;52.560;13.566;2023-02-15T04:04:58;102151.34;;;1.13;100.00
5679;BME280;2862;52.560;13.566;2023-02-15T04:15:03;102145.13;;;1.17;99.59
5679;BME280;2862;52.560;13.566;2023-02-15T04:25:25;102139.97;;;1.12;99.39
5679;BME280;2862;52.560;13.566;2023-02-15T04:35:29;102129.78;;;0.95;100.00
5679;BME280;2862;52.560;13.566;2023-02-15T04:45:33;102130.84;;;0.85;100.00
5679;BME280;2862;52.560;13.566;2023-02-15T04:55:38;102112.88;;;0.64;100.00
5679;BME280;2862;52.560;13.566;2023-02-15T05:05:42;102092.78;;;0.60;100.00
5679;BME280;2862;52.560;13.566;2023-02-15T05:15:50;102090.19;;;0.57;100.00
5679;BME280;2862;52.560;13.566;2023-02-15T05:25:53;102074.47;;;0.53;100.00
5679;BME280;2862;52.560;13.566;2023-02-15T05:36:16;102080.47;;;0.60;100.00
5679;BME280;2862;52.560;13.566;2023-02-15T05:46:19;102083.03;;;0.65;100.00
5679;BME280;2862;52.560;13.566;2023-02-15T05:56:27;102065.97;;;0.83;100.00
5679;BME280;2862;52.560;13.566;2023-02-15T06:06:30;102056.25;;;0.86;100.00
5679;BME280;2862;52.560;13.566;2023-02-15T06:16:44;102056.53;;;0.72;100.00
5679;BME280;2862;52.560;13.566;2023-02-15T06:26:47;102062.53;;;0.79;100.00
5679;BME280;2862;52.560;13.566;2023-02-15T06:36:51;102045.66;;;0.46;100.00
5679;BME280;2862;52.560;13.566;2023-02-15T06:46:54;102046.69;;;0.40;100.00
5679;BME280;2862;52.560;13.566;2023-02-15T06:56:59;102054.56;;;0.40;100.00
5679;BME280;2862;52.560;13.566;2023-02-15T07:07:02;102049.53;;;0.71;100.00
5679;BME280;2862;52.560;13.566;2023-02-15T07:17:07;102046.56;;;0.88;100.00
5679;BME280;2862;52.560;13.566;2023-02-15T07:27:31;102025.03;;;1.08;100.00
5679;BME280;2862;52.560;13.566;2023-02-15T07:37:36;102014.00;;;0.50;100.00
5679;BME280;2862;52.560;13.566;2023-02-15T07:47:39;102009.88;;;0.79;100.00
5679;BME280;2862;52.560;13.566;2023-02-15T07:57:43;101991.91;;;1.69;100.00
5679;BME280;2862;52.560;13.566;2023-02-15T08:07:46;101980.38;;;1.73;98.61
5679;BME280;2862;52.560;13.566;2023-02-15T08:17:51;101995.25;;;1.42;99.58
5679;BME280;2862;52.560;13.566;2023-02-15T08:27:54;101990.84;;;1.42;100.00
5679;BME280;2862;52.560;13.566;2023-02-15T08:38:07;101983.97;;;1.71;99.15
5679;BME280;2862;52.560;13.566;2023-02-15T08:48:49;101965.50;;;1.71;98.87
5679;BME280;2862;52.560;13.566;2023-02-15T08:58:55;101956.50;;;1.79;99.94
5679;BME280;2862;52.560;13.566;2023-02-15T09:08:58;101940.72;;;1.78;100.00
5679;BME280;2862;52.560;13.566;2023-02-15T09:19:03;101946.78;;;2.12;100.00
5679;BME280;2862;52.560;13.566;2023-02-15T09:29:07;101952.28;;;2.34;99.56
5679;BME280;2862;52.560;13.566;2023-02-15T09:39:14;101947.31;;;2.83;96.86
5679;BME280;2862;52.560;13.566;2023-02-15T09:49:22;101941.31;;;2.78;97.57
5679;BME280;2862;52.560;13.566;2023-02-15T09:59:34;101942.22;;;3.03;96.24
5679;BME280;2862;52.560;13.566;2023-02-15T10:09:49;101938.09;;;3.23;96.53
5679;BME280;2862;52.560;13.566;2023-02-15T10:20:06;101923.44;;;3.39;96.04
5679;BME280;2862;52.560;13.566;2023-02-15T10:30:14;101913.72;;;3.89;93.80
5679;BME280;2862;52.560;13.566;2023-02-15T10:40:25;101901.56;;;4.09;93.06
5679;BME280;2862;52.560;13.566;2023-02-15T10:50:42;101888.03;;;4.62;91.69
5679;BME280;2862;52.560;13.566;2023-02-15T11:00:54;101881.41;;;4.50;92.55
5679;BME280;2862;52.560;13.566;2023-02-15T11:11:05;101866.28;;;5.18;88.68
5679;BME280;2862;52.560;13.566;2023-02-15T11:21:17;101851.72;;;4.86;91.25
5679;BME280;2862;52.560;13.566;2023-02-15T11:31:23;101842.56;;;5.35;90.36
5679;BME280;2862;52.560;13.566;2023-02-15T11:41:32;101822.28;;;5.34;89.56
5679;BME280;2862;52.560;13.566;2023-02-15T11:51:36;101814.91;;;5.41;88.50
5679;BME280;2862;52.560;13.566;2023-02-15T12:01:43;101815.78;;;5.60;88.51
5679;BME280;2862;52.560;13.566;2023-02-15T12:11:46;101803.69;;;5.94;86.74
5679;BME280;2862;52.560;13.566;2023-02-15T12:21:52;101801.94;;;6.11;86.28
5679;BME280;2862;52.560;13.566;2023-02-15T12:31:56;101791.69;;;6.23;85.70
5679;BME280;2862;52.560;13.566;2023-02-15T12:42:04;101773.06;;;6.59;83.89
5679;BME280;2862;52.560;13.566;2023-02-15T12:52:24;101758.56;;;7.01;81.07
5679;BME280;2862;52.560;13.566;2023-02-15T13:02:31;101747.41;;;7.27;80.41
5679;BME280;2862;52.560;13.566;2023-02-15T13:12:37;101732.81;;;7.52;79.10
5679;BME280;2862;52.560;13.566;2023-02-15T13:22:44;101707.06;;;7.99;75.81
5679;BME280;2862;52.560;13.566;2023-02-15T13:32:52;101689.59;;;8.10;76.44
5679;BME280;2862;52.560;13.566;2023-02-15T13:43:02;101683.81;;;8.33;73.88
5679;BME280;2862;52.560;13.566;2023-02-15T14:04:01;101661.66;;;8.77;77.59
5679;BME280;2862;52.560;13.566;2023-02-15T14:24:45;101680.50;;;8.74;72.64
5679;BME280;2862;52.560;13.566;2023-02-15T14:34:53;101665.09;;;8.79;74.52
5679;BME280;2862;52.560;13.566;2023-02-15T14:45:02;101665.38;;;8.89;74.22
5679;BME280;2862;52.560;13.566;2023-02-15T14:55:07;101654.72;;;8.89;73.86
5679;BME280;2862;52.560;13.566;2023-02-15T15:05:21;101649.38;;;8.74;74.10
5679;BME280;2862;52.560;13.566;2023-02-15T15:15:37;101636.91;;;8.61;74.87
5679;BME280;2862;52.560;13.566;2023-02-15T15:25:50;101633.91;;;8.51;75.88
5679;BME280;2862;52.560;13.566;2023-02-15T15:36:13;101642.38;;;8.43;75.68
5679;BME280;2862;52.560;13.566;2023-02-15T15:46:39;101641.00;;;8.36;76.43
5679;BME280;2862;52.560;13.566;2023-02-15T15:56:51;101651.97;;;8.16;77.14
5679;BME280;2862;52.560;13.566;2023-02-15T16:06:58;101634.06;;;7.88;78.95
5679;BME280;2862;52.560;13.566;2023-02-15T16:17:03;101621.09;;;7.66;79.85
5679;BME280;2862;52.560;13.566;2023-02-15T16:27:19;101621.69;;;7.55;80.31
5679;BME280;2862;52.560;13.566;2023-02-15T16:37:27;101601.59;;;7.34;81.27
5679;BME280;2862;52.560;13.566;2023-02-15T16:47:38;101611.56;;;7.30;81.38
5679;BME280;2862;52.560;13.566;2023-02-15T16:57:43;101603.31;;;7.03;82.39
5679;BME280;2862;52.560;13.566;2023-02-15T17:08:05;101618.13;;;6.91;83.36
5679;BME280;2862;52.560;13.566;2023-02-15T17:18:12;101626.94;;;6.59;85.03
5679;BME280;2862;52.560;13.566;2023-02-15T17:28:22;101607.78;;;6.52;85.23
5679;BME280;2862;52.560;13.566;2023-02-15T17:38:26;101603.66;;;6.47;85.80
5679;BME280;2862;52.560;13.566;2023-02-15T17:48:33;101607.28;;;6.28;86.43
5679;BME280;2862;52.560;13.566;2023-02-15T17:58:38;101608.22;;;6.27;87.49
5679;BME280;2862;52.560;13.566;2023-02-15T18:08:42;101598.75;;;6.04;87.31
5679;BME280;2862;52.560;13.566;2023-02-15T18:19:04;101588.53;;;5.97;88.12
5679;BME280;2862;52.560;13.566;2023-02-15T18:29:08;101588.00;;;5.89;88.61
5679;BME280;2862;52.560;13.566;2023-02-15T18:39:26;101579.28;;;5.86;89.21
5679;BME280;2862;52.560;13.566;2023-02-15T18:49:32;101591.91;;;5.81;88.94
5679;BME280;2862;52.560;13.566;2023-02-15T18:59:35;101571.44;;;5.66;90.05
5679;BME280;2862;52.560;13.566;2023-02-15T19:09:39;101573.59;;;5.58;90.32
5679;BME280;2862;52.560;13.566;2023-02-15T19:19:43;101563.31;;;5.52;91.47
5679;BME280;2862;52.560;13.566;2023-02-15T19:29:47;101553.28;;;5.40;91.46
5679;BME280;2862;52.560;13.566;2023-02-15T19:39:50;101542.97;;;5.33;91.67
5679;BME280;2862;52.560;13.566;2023-02-15T19:49:55;101530.28;;;5.21;92.21
5679;BME280;2862;52.560;13.566;2023-02-15T20:00:14;101512.38;;;5.26;92.17
5679;BME280;2862;52.560;13.566;2023-02-15T20:10:26;101507.53;;;5.17;92.16
5679;BME280;2862;52.560;13.566;2023-02-15T20:20:33;101496.31;;;4.93;93.15
5679;BME280;2862;52.560;13.566;2023-02-15T20:30:41;101485.13;;;4.87;93.96
5679;BME280;2862;52.560;13.566;2023-02-15T20:40:47;101493.16;;;4.85;95.47
5679;BME280;2862;52.560;13.566;2023-02-15T20:51:14;101485.84;;;4.52;94.77
5679;BME280;2862;52.560;13.566;2023-02-15T21:01:19;101494.13;;;4.45;95.50
5679;BME280;2862;52.560;13.566;2023-02-15T21:11:23;101491.28;;;4.49;95.71
5679;BME280;2862;52.560;13.566;2023-02-15T21:21:26;101492.53;;;4.41;94.46
5679;BME280;2862;52.560;13.566;2023-02-15T21:31:31;101483.59;;;4.24;96.14
5679;BME280;2862;52.560;13.566;2023-02-15T21:41:34;101482.88;;;4.40;96.93
5679;BME280;2862;52.560;13.566;2023-02-15T21:51:56;101487.88;;;4.27;97.78
5679;BME280;2862;52.560;13.566;2023-02-15T22:02:37;101484.28;;;4.09;97.08
5679;BME280;2862;52.560;13.566;2023-02-15T22:12:42;101476.59;;;4.03;97.68
5679;BME280;2862;52.560;13.566;2023-02-15T22:22:46;101489.84;;;4.03;98.28
5679;BME280;2862;52.560;13.566;2023-02-15T22:32:50;101470.50;;;4.01;99.22
5679;BME280;2862;52.560;13.566;2023-02-15T22:42:53;101473.97;;;4.03;99.31
5679;BME280;2862;52.560;13.566;2023-02-15T22:53:00;101477.53;;;3.82;99.92
5679;BME280;2862;52.560;13.566;2023-02-15T23:03:14;101474.06;;;3.59;99.81
5679;BME280;2862;52.560;13.566;2023-02-15T23:13:21;101452.16;;;3.57;100.00
5679;BME280;2862;52.560;13.566;2023-02-15T23:23:29;101454.59;;;3.62;100.00
5679;BME280;2862;52.560;13.566;2023-02-15T23:33:36;101467.25;;;3.54;100.00
5679;BME280;2862;52.560;13.566;2023-02-15T23:43:41;101456.94;;;3.47;100.00
5679;BME280;2862;52.560;13.566;2023-02-15T23:53:46;101462.69;;;3.37;99.98
